sensor_id;sensor_type;location;lat;lon;timestamp;P1;durP1;ratioP1;P2;durP2;ratioP2
80127;SDS011;69440;52.118;5.408;2023-05-23T00:01:00;14.27;;;7.13;;
80127;SDS011;69440;52.118;5.408;2023-05-23T00:03:27;14.75;;;6.82;;
80127;SDS011;69440;52.118;5.408;2023-05-23T00:05:56;15.02;;;7.15;;
80127;SDS011;69440;52.118;5.408;2023-05-23T00:08:24;14.93;;;6.93;;
80127;SDS011;69440;52.118;5.408;2023-05-23T00:10:50;15.02;;;6.80;;
80127;SDS011;69440;52.118;5.408;2023-05-23T00:13:17;14.27;;;7.00;;
80127;SDS011;69440;52.118;5.408;2023-05-23T00:15:43;12.32;;;6.90;;
80127;SDS011;69440;52.118;5.408;2023-05-23T00:18:10;12.25;;;6.25;;
80127;SDS011;69440;52.118;5.408;2023-05-23T00:20:37;17.88;;;7.43;;
80127;SDS011;69440;52.118;5.408;2023-05-23T00:23:06;13.95;;;7.32;;
80127;SDS011;69440;52.118;5.408;2023-05-23T00:25:34;10.73;;;6.20;;
80127;SDS011;69440;52.118;5.408;2023-05-23T00:28:01;14.00;;;6.38;;
80127;SDS011;69440;52.118;5.408;2023-05-23T00:30:29;12.13;;;5.97;;
80127;SDS011;69440;52.118;5.408;2023-05-23T00:32:57;12.30;;;6.22;;
80127;SDS011;69440;52.118;5.408;2023-05-23T00:35:25;12.63;;;6.55;;
80127;SDS011;69440;52.118;5.408;2023-05-23T00:37:52;11.25;;;5.88;;
80127;SDS011;69440;52.118;5.408;2023-05-23T00:40:19;15.80;;;6.05;;
80127;SDS011;69440;52.118;5.408;2023-05-23T00:42:49;11.20;;;6.25;;
80127;SDS011;69440;52.118;5.408;2023-05-23T00:45:15;11.80;;;6.20;;
80127;SDS011;69440;52.118;5.408;2023-05-23T00:47:43;7.43;;;5.47;;
80127;SDS011;69440;52.118;5.408;2023-05-23T00:50:12;11.63;;;4.97;;
80127;SDS011;69440;52.118;5.408;2023-05-23T00:52:41;10.23;;;4.72;;
80127;SDS011;69440;52.118;5.408;2023-05-23T00:55:09;12.65;;;5.55;;
80127;SDS011;69440;52.118;5.408;2023-05-23T00:57:37;8.60;;;4.38;;
80127;SDS011;69440;52.118;5.408;2023-05-23T01:00:12;7.32;;;4.70;;
80127;SDS011;69440;52.118;5.408;2023-05-23T01:02:49;8.93;;;4.55;;
80127;SDS011;69440;52.118;5.408;2023-05-23T01:05:17;7.43;;;4.40;;
80127;SDS011;69440;52.118;5.408;2023-05-23T01:07:47;9.10;;;4.22;;
80127;SDS011;69440;52.118;5.408;2023-05-23T01:10:36;11.32;;;4.63;;
80127;SDS011;69440;52.118;5.408;2023-05-23T01:13:16;9.15;;;4.90;;
80127;SDS011;69440;52.118;5.408;2023-05-23T01:16:52;7.78;;;4.07;;
80127;SDS011;69440;52.118;5.408;2023-05-23T01:18:53;9.23;;;4.60;;
80127;SDS011;69440;52.118;5.408;2023-05-23T01:21:29;7.32;;;4.20;;
80127;SDS011;69440;52.118;5.408;2023-05-23T01:24:11;7.75;;;4.50;;
80127;SDS011;69440;52.118;5.408;2023-05-23T01:27:15;9.20;;;4.45;;
80127;SDS011;69440;52.118;5.408;2023-05-23T01:29:47;7.50;;;4.40;;
80127;SDS011;69440;52.118;5.408;2023-05-23T01:32:19;8.23;;;4.43;;
80127;SDS011;69440;52.118;5.408;2023-05-23T01:34:48;9.35;;;4.68;;
80127;SDS011;69440;52.118;5.408;2023-05-23T01:37:17;8.60;;;4.53;;
80127;SDS011;69440;52.118;5.408;2023-05-23T01:39:45;9.35;;;4.70;;
80127;SDS011;69440;52.118;5.408;2023-05-23T01:42:12;7.47;;;4.28;;
80127;SDS011;69440;52.118;5.408;2023-05-23T01:44:39;10.75;;;4.32;;
80127;SDS011;69440;52.118;5.408;2023-05-23T01:47:07;6.82;;;4.25;;
80127;SDS011;69440;52.118;5.408;2023-05-23T01:49:35;10.45;;;4.45;;
80127;SDS011;69440;52.118;5.408;2023-05-23T01:52:02;10.27;;;4.47;;
80127;SDS011;69440;52.118;5.408;2023-05-23T01:54:30;9.23;;;4.18;;
80127;SDS011;69440;52.118;5.408;2023-05-23T01:57:00;10.10;;;5.20;;
80127;SDS011;69440;52.118;5.408;2023-05-23T01:59:27;7.32;;;3.90;;
80127;SDS011;69440;52.118;5.408;2023-05-23T02:01:53;10.20;;;4.30;;
80127;SDS011;69440;52.118;5.408;2023-05-23T02:04:20;7.82;;;3.88;;
80127;SDS011;69440;52.118;5.408;2023-05-23T02:06:47;10.77;;;4.35;;
80127;SDS011;69440;52.118;5.408;2023-05-23T02:09:13;9.30;;;4.32;;
80127;SDS011;69440;52.118;5.408;2023-05-23T02:11:40;10.73;;;4.20;;
80127;SDS011;69440;52.118;5.408;2023-05-23T02:14:06;7.32;;;3.95;;
80127;SDS011;69440;52.118;5.408;2023-05-23T02:16:32;10.10;;;4.50;;
80127;SDS011;69440;52.118;5.408;2023-05-23T02:19:01;8.35;;;3.75;;
80127;SDS011;69440;52.118;5.408;2023-05-23T02:21:28;10.35;;;4.30;;
80127;SDS011;69440;52.118;5.408;2023-05-23T02:23:55;10.13;;;3.97;;
80127;SDS011;69440;52.118;5.408;2023-05-23T02:26:21;8.13;;;3.85;;
80127;SDS011;69440;52.118;5.408;2023-05-23T02:28:48;11.95;;;3.95;;
80127;SDS011;69440;52.118;5.408;2023-05-23T02:31:14;9.43;;;4.10;;
80127;SDS011;69440;52.118;5.408;2023-05-23T02:33:42;11.18;;;4.97;;
80127;SDS011;69440;52.118;5.408;2023-05-23T02:36:09;9.80;;;4.20;;
80127;SDS011;69440;52.118;5.408;2023-05-23T02:38:35;8.27;;;3.88;;
80127;SDS011;69440;52.118;5.408;2023-05-23T02:41:01;9.25;;;4.43;;
80127;SDS011;69440;52.118;5.408;2023-05-23T02:43:29;10.82;;;4.43;;
80127;SDS011;69440;52.118;5.408;2023-05-23T02:45:55;11.55;;;6.03;;
80127;SDS011;69440;52.118;5.408;2023-05-23T02:48:22;13.68;;;5.25;;
80127;SDS011;69440;52.118;5.408;2023-05-23T02:50:48;8.80;;;4.15;;
80127;SDS011;69440;52.118;5.408;2023-05-23T02:53:15;9.07;;;4.20;;
80127;SDS011;69440;52.118;5.408;2023-05-23T02:55:41;9.27;;;4.88;;
80127;SDS011;69440;52.118;5.408;2023-05-23T02:58:08;7.47;;;4.40;;
80127;SDS011;69440;52.118;5.408;2023-05-23T03:00:34;14.35;;;4.20;;
80127;SDS011;69440;52.118;5.408;2023-05-23T03:03:01;10.32;;;4.15;;
80127;SDS011;69440;52.118;5.408;2023-05-23T03:05:28;10.80;;;4.13;;
80127;SDS011;69440;52.118;5.408;2023-05-23T03:07:54;9.73;;;4.47;;
80127;SDS011;69440;52.118;5.408;2023-05-23T03:10:21;11.10;;;4.50;;
80127;SDS011;69440;52.118;5.408;2023-05-23T03:12:47;13.25;;;4.50;;
80127;SDS011;69440;52.118;5.408;2023-05-23T03:15:14;11.38;;;4.50;;
80127;SDS011;69440;52.118;5.408;2023-05-23T03:17:40;12.52;;;4.88;;
80127;SDS011;69440;52.118;5.408;2023-05-23T03:20:07;13.82;;;4.65;;
80127;SDS011;69440;52.118;5.408;2023-05-23T03:22:35;13.48;;;4.28;;
80127;SDS011;69440;52.118;5.408;2023-05-23T03:25:02;11.77;;;5.30;;
80127;SDS011;69440;52.118;5.408;2023-05-23T03:27:29;15.00;;;6.25;;
80127;SDS011;69440;52.118;5.408;2023-05-23T03:29:55;15.43;;;5.38;;
80127;SDS011;69440;52.118;5.408;2023-05-23T03:32:22;17.02;;;5.28;;
80127;SDS011;69440;52.118;5.408;2023-05-23T03:34:48;14.35;;;5.40;;
80127;SDS011;69440;52.118;5.408;2023-05-23T03:37:15;16.25;;;5.63;;
80127;SDS011;69440;52.118;5.408;2023-05-23T03:39:41;15.43;;;5.43;;
80127;SDS011;69440;52.118;5.408;2023-05-23T03:42:07;15.45;;;5.50;;
80127;SDS011;69440;52.118;5.408;2023-05-23T03:44:34;15.98;;;5.20;;
80127;SDS011;69440;52.118;5.408;2023-05-23T03:47:00;17.30;;;5.50;;
80127;SDS011;69440;52.118;5.408;2023-05-23T03:49:27;15.32;;;5.53;;
80127;SDS011;69440;52.118;5.408;2023-05-23T03:51:53;17.17;;;5.13;;
80127;SDS011;69440;52.118;5.408;2023-05-23T03:54:19;16.33;;;5.70;;
80127;SDS011;69440;52.118;5.408;2023-05-23T03:56:46;15.70;;;5.18;;
80127;SDS011;69440;52.118;5.408;2023-05-23T03:59:12;13.90;;;4.72;;
80127;SDS011;69440;52.118;5.408;2023-05-23T04:01:39;12.65;;;5.00;;
80127;SDS011;69440;52.118;5.408;2023-05-23T04:04:05;14.65;;;5.25;;
80127;SDS011;69440;52.118;5.408;2023-05-23T04:06:32;14.75;;;5.35;;
80127;SDS011;69440;52.118;5.408;2023-05-23T04:08:58;19.85;;;5.68;;
80127;SDS011;69440;52.118;5.408;2023-05-23T04:11:25;16.85;;;5.65;;
80127;SDS011;69440;52.118;5.408;2023-05-23T04:13:51;10.82;;;4.93;;
80127;SDS011;69440;52.118;5.408;2023-05-23T04:16:18;15.98;;;5.07;;
80127;SDS011;69440;52.118;5.408;2023-05-23T04:18:44;17.38;;;5.43;;
80127;SDS011;69440;52.118;5.408;2023-05-23T04:21:12;12.23;;;4.32;;
80127;SDS011;69440;52.118;5.408;2023-05-23T04:23:38;14.02;;;4.68;;
80127;SDS011;69440;52.118;5.408;2023-05-23T04:26:05;18.38;;;4.70;;
80127;SDS011;69440;52.118;5.408;2023-05-23T04:28:33;14.52;;;4.30;;
80127;SDS011;69440;52.118;5.408;2023-05-23T04:30:59;16.33;;;4.90;;
80127;SDS011;69440;52.118;5.408;2023-05-23T04:33:28;11.52;;;3.08;;
80127;SDS011;69440;52.118;5.408;2023-05-23T04:35:55;10.90;;;3.55;;
80127;SDS011;69440;52.118;5.408;2023-05-23T04:38:22;11.93;;;3.50;;
80127;SDS011;69440;52.118;5.408;2023-05-23T04:40:50;11.57;;;4.00;;
80127;SDS011;69440;52.118;5.408;2023-05-23T04:43:19;9.15;;;3.78;;
80127;SDS011;69440;52.118;5.408;2023-05-23T04:45:46;13.60;;;3.65;;
80127;SDS011;69440;52.118;5.408;2023-05-23T04:48:16;14.32;;;3.40;;
80127;SDS011;69440;52.118;5.408;2023-05-23T04:50:43;11.80;;;2.97;;
80127;SDS011;69440;52.118;5.408;2023-05-23T04:53:12;12.05;;;2.90;;
80127;SDS011;69440;52.118;5.408;2023-05-23T04:55:39;13.05;;;3.42;;
80127;SDS011;69440;52.118;5.408;2023-05-23T04:58:06;7.35;;;3.03;;
80127;SDS011;69440;52.118;5.408;2023-05-23T05:00:33;10.80;;;3.05;;
80127;SDS011;69440;52.118;5.408;2023-05-23T05:02:59;8.65;;;3.20;;
80127;SDS011;69440;52.118;5.408;2023-05-23T05:05:26;8.65;;;3.58;;
80127;SDS011;69440;52.118;5.408;2023-05-23T05:07:52;14.55;;;3.92;;
80127;SDS011;69440;52.118;5.408;2023-05-23T05:10:19;11.43;;;3.22;;
80127;SDS011;69440;52.118;5.408;2023-05-23T05:12:46;10.63;;;3.55;;
80127;SDS011;69440;52.118;5.408;2023-05-23T05:15:15;10.27;;;3.00;;
80127;SDS011;69440;52.118;5.408;2023-05-23T05:17:42;10.25;;;3.58;;
80127;SDS011;69440;52.118;5.408;2023-05-23T05:20:11;9.73;;;3.35;;
80127;SDS011;69440;52.118;5.408;2023-05-23T05:22:37;11.43;;;3.30;;
80127;SDS011;69440;52.118;5.408;2023-05-23T05:25:08;11.38;;;3.90;;
80127;SDS011;69440;52.118;5.408;2023-05-23T05:27:36;11.35;;;3.28;;
80127;SDS011;69440;52.118;5.408;2023-05-23T05:30:06;10.60;;;3.88;;
80127;SDS011;69440;52.118;5.408;2023-05-23T05:32:34;5.40;;;2.90;;
80127;SDS011;69440;52.118;5.408;2023-05-23T05:35:01;11.30;;;3.58;;
80127;SDS011;69440;52.118;5.408;2023-05-23T05:37:28;12.52;;;3.35;;
80127;SDS011;69440;52.118;5.408;2023-05-23T05:39:55;9.38;;;3.13;;
80127;SDS011;69440;52.118;5.408;2023-05-23T05:42:21;10.80;;;3.17;;
80127;SDS011;69440;52.118;5.408;2023-05-23T05:44:48;10.75;;;3.28;;
80127;SDS011;69440;52.118;5.408;2023-05-23T05:47:15;8.27;;;3.22;;
80127;SDS011;69440;52.118;5.408;2023-05-23T05:49:41;12.68;;;3.67;;
80127;SDS011;69440;52.118;5.408;2023-05-23T05:52:08;10.50;;;3.40;;
80127;SDS011;69440;52.118;5.408;2023-05-23T05:54:34;10.98;;;3.70;;
80127;SDS011;69440;52.118;5.408;2023-05-23T05:57:01;8.32;;;3.08;;
80127;SDS011;69440;52.118;5.408;2023-05-23T05:59:27;8.07;;;3.45;;
80127;SDS011;69440;52.118;5.408;2023-05-23T06:01:57;11.02;;;3.85;;
80127;SDS011;69440;52.118;5.408;2023-05-23T06:04:24;11.70;;;3.58;;
80127;SDS011;69440;52.118;5.408;2023-05-23T06:06:50;8.45;;;3.80;;
80127;SDS011;69440;52.118;5.408;2023-05-23T06:09:17;10.18;;;3.78;;
80127;SDS011;69440;52.118;5.408;2023-05-23T06:11:43;8.82;;;3.80;;
80127;SDS011;69440;52.118;5.408;2023-05-23T06:14:09;9.40;;;3.53;;
80127;SDS011;69440;52.118;5.408;2023-05-23T06:16:36;11.73;;;4.00;;
80127;SDS011;69440;52.118;5.408;2023-05-23T06:19:03;14.18;;;3.60;;
80127;SDS011;69440;52.118;5.408;2023-05-23T06:21:29;9.82;;;3.58;;
80127;SDS011;69440;52.118;5.408;2023-05-23T06:23:56;12.52;;;4.15;;
80127;SDS011;69440;52.118;5.408;2023-05-23T06:26:22;10.13;;;3.67;;
80127;SDS011;69440;52.118;5.408;2023-05-23T06:28:49;13.98;;;3.88;;
80127;SDS011;69440;52.118;5.408;2023-05-23T06:31:15;13.25;;;3.80;;
80127;SDS011;69440;52.118;5.408;2023-05-23T06:33:42;9.10;;;3.75;;
80127;SDS011;69440;52.118;5.408;2023-05-23T06:36:08;11.90;;;4.53;;
80127;SDS011;69440;52.118;5.408;2023-05-23T06:38:35;8.23;;;3.78;;
80127;SDS011;69440;52.118;5.408;2023-05-23T06:41:01;11.05;;;3.65;;
80127;SDS011;69440;52.118;5.408;2023-05-23T06:43:28;10.85;;;3.72;;
80127;SDS011;69440;52.118;5.408;2023-05-23T06:45:55;11.48;;;3.58;;
80127;SDS011;69440;52.118;5.408;2023-05-23T06:48:21;7.97;;;3.55;;
80127;SDS011;69440;52.118;5.408;2023-05-23T06:50:48;10.52;;;3.70;;
80127;SDS011;69440;52.118;5.408;2023-05-23T06:53:14;12.70;;;3.92;;
80127;SDS011;69440;52.118;5.408;2023-05-23T06:55:44;11.70;;;3.80;;
80127;SDS011;69440;52.118;5.408;2023-05-23T06:58:11;8.43;;;3.50;;
80127;SDS011;69440;52.118;5.408;2023-05-23T07:00:37;6.43;;;2.80;;
80127;SDS011;69440;52.118;5.408;2023-05-23T07:03:04;10.63;;;2.97;;
80127;SDS011;69440;52.118;5.408;2023-05-23T07:05:32;5.50;;;2.75;;
80127;SDS011;69440;52.118;5.408;2023-05-23T07:07:59;8.63;;;2.97;;
80127;SDS011;69440;52.118;5.408;2023-05-23T07:10:26;6.68;;;2.33;;
80127;SDS011;69440;52.118;5.408;2023-05-23T07:12:52;5.70;;;2.30;;
80127;SDS011;69440;52.118;5.408;2023-05-23T07:15:19;11.35;;;2.65;;
80127;SDS011;69440;52.118;5.408;2023-05-23T07:17:45;8.73;;;2.53;;
80127;SDS011;69440;52.118;5.408;2023-05-23T07:20:12;9.93;;;2.08;;
80127;SDS011;69440;52.118;5.408;2023-05-23T07:22:38;12.25;;;2.30;;
80127;SDS011;69440;52.118;5.408;2023-05-23T07:25:05;10.35;;;1.88;;
80127;SDS011;69440;52.118;5.408;2023-05-23T07:27:32;11.68;;;2.35;;
80127;SDS011;69440;52.118;5.408;2023-05-23T07:29:59;9.07;;;2.08;;
80127;SDS011;69440;52.118;5.408;2023-05-23T07:32:26;10.57;;;2.08;;
80127;SDS011;69440;52.118;5.408;2023-05-23T07:34:53;8.07;;;1.92;;
80127;SDS011;69440;52.118;5.408;2023-05-23T07:37:19;8.07;;;1.85;;
80127;SDS011;69440;52.118;5.408;2023-05-23T07:39:46;6.57;;;1.77;;
80127;SDS011;69440;52.118;5.408;2023-05-23T07:42:12;9.57;;;2.03;;
80127;SDS011;69440;52.118;5.408;2023-05-23T07:44:40;11.80;;;2.45;;
80127;SDS011;69440;52.118;5.408;2023-05-23T07:47:06;7.45;;;1.73;;
80127;SDS011;69440;52.118;5.408;2023-05-23T07:49:33;9.20;;;1.95;;
80127;SDS011;69440;52.118;5.408;2023-05-23T07:52:00;12.68;;;2.03;;
80127;SDS011;69440;52.118;5.408;2023-05-23T07:54:27;9.23;;;2.22;;
80127;SDS011;69440;52.118;5.408;2023-05-23T07:56:53;8.60;;;1.98;;
80127;SDS011;69440;52.118;5.408;2023-05-23T07:59:20;8.43;;;2.00;;
80127;SDS011;69440;52.118;5.408;2023-05-23T08:01:47;10.02;;;2.33;;
80127;SDS011;69440;52.118;5.408;2023-05-23T08:04:16;9.30;;;2.20;;
80127;SDS011;69440;52.118;5.408;2023-05-23T08:06:43;13.15;;;2.45;;
80127;SDS011;69440;52.118;5.408;2023-05-23T08:09:29;8.60;;;2.20;;
80127;SDS011;69440;52.118;5.408;2023-05-23T08:11:56;7.78;;;2.50;;
80127;SDS011;69440;52.118;5.408;2023-05-23T08:14:22;8.43;;;2.25;;
80127;SDS011;69440;52.118;5.408;2023-05-23T08:16:56;11.50;;;2.03;;
80127;SDS011;69440;52.118;5.408;2023-05-23T08:19:24;8.27;;;2.08;;
80127;SDS011;69440;52.118;5.408;2023-05-23T08:21:51;8.15;;;1.83;;
80127;SDS011;69440;52.118;5.408;2023-05-23T08:24:21;7.00;;;1.95;;
80127;SDS011;69440;52.118;5.408;2023-05-23T08:26:48;11.55;;;2.00;;
80127;SDS011;69440;52.118;5.408;2023-05-23T08:29:15;14.40;;;2.13;;
80127;SDS011;69440;52.118;5.408;2023-05-23T08:31:41;9.63;;;2.00;;
80127;SDS011;69440;52.118;5.408;2023-05-23T08:34:08;9.30;;;1.90;;
80127;SDS011;69440;52.118;5.408;2023-05-23T08:36:34;10.50;;;2.40;;
80127;SDS011;69440;52.118;5.408;2023-05-23T08:39:02;9.38;;;2.63;;
80127;SDS011;69440;52.118;5.408;2023-05-23T08:41:28;9.88;;;1.90;;
80127;SDS011;69440;52.118;5.408;2023-05-23T08:43:56;6.97;;;1.98;;
80127;SDS011;69440;52.118;5.408;2023-05-23T08:46:22;10.15;;;2.15;;
80127;SDS011;69440;52.118;5.408;2023-05-23T08:48:53;9.52;;;2.53;;
80127;SDS011;69440;52.118;5.408;2023-05-23T08:51:21;9.90;;;2.00;;
80127;SDS011;69440;52.118;5.408;2023-05-23T08:53:48;10.75;;;2.63;;
80127;SDS011;69440;52.118;5.408;2023-05-23T08:56:18;8.77;;;2.08;;
80127;SDS011;69440;52.118;5.408;2023-05-23T08:58:45;12.98;;;2.70;;
80127;SDS011;69440;52.118;5.408;2023-05-23T09:01:15;9.50;;;2.00;;
80127;SDS011;69440;52.118;5.408;2023-05-23T09:03:45;10.73;;;2.40;;
80127;SDS011;69440;52.118;5.408;2023-05-23T09:06:13;10.95;;;2.40;;
80127;SDS011;69440;52.118;5.408;2023-05-23T09:08:40;9.15;;;1.83;;
80127;SDS011;69440;52.118;5.408;2023-05-23T09:11:08;9.10;;;2.13;;
80127;SDS011;69440;52.118;5.408;2023-05-23T09:13:38;11.40;;;2.20;;
80127;SDS011;69440;52.118;5.408;2023-05-23T09:16:06;9.02;;;2.05;;
80127;SDS011;69440;52.118;5.408;2023-05-23T09:18:36;12.27;;;2.40;;
80127;SDS011;69440;52.118;5.408;2023-05-23T09:21:04;10.43;;;2.20;;
80127;SDS011;69440;52.118;5.408;2023-05-23T09:23:31;9.27;;;2.50;;
80127;SDS011;69440;52.118;5.408;2023-05-23T09:26:02;8.45;;;2.03;;
80127;SDS011;69440;52.118;5.408;2023-05-23T09:28:31;9.45;;;2.72;;
80127;SDS011;69440;52.118;5.408;2023-05-23T09:31:04;9.25;;;2.60;;
80127;SDS011;69440;52.118;5.408;2023-05-23T09:33:34;11.75;;;1.90;;
80127;SDS011;69440;52.118;5.408;2023-05-23T09:36:07;9.15;;;2.10;;
80127;SDS011;69440;52.118;5.408;2023-05-23T09:38:37;9.10;;;2.33;;
80127;SDS011;69440;52.118;5.408;2023-05-23T09:41:05;9.63;;;2.35;;
80127;SDS011;69440;52.118;5.408;2023-05-23T09:43:31;9.95;;;2.50;;
80127;SDS011;69440;52.118;5.408;2023-05-23T09:46:08;13.07;;;2.47;;
80127;SDS011;69440;52.118;5.408;2023-05-23T09:48:36;9.88;;;2.30;;
80127;SDS011;69440;52.118;5.408;2023-05-23T09:51:07;9.57;;;2.58;;
80127;SDS011;69440;52.118;5.408;2023-05-23T09:53:35;9.35;;;2.30;;
80127;SDS011;69440;52.118;5.408;2023-05-23T09:56:02;10.57;;;1.80;;
80127;SDS011;69440;52.118;5.408;2023-05-23T09:58:29;11.50;;;3.15;;
80127;SDS011;69440;52.118;5.408;2023-05-23T10:00:56;11.35;;;2.10;;
80127;SDS011;69440;52.118;5.408;2023-05-23T10:04:11;8.52;;;2.08;;
80127;SDS011;69440;52.118;5.408;2023-05-23T10:06:24;9.30;;;2.63;;
80127;SDS011;69440;52.118;5.408;2023-05-23T10:09:03;10.73;;;2.38;;
80127;SDS011;69440;52.118;5.408;2023-05-23T10:14:09;9.82;;;2.13;;
80127;SDS011;69440;52.118;5.408;2023-05-23T10:16:39;9.27;;;2.75;;
80127;SDS011;69440;52.118;5.408;2023-05-23T10:19:23;6.80;;;2.13;;
80127;SDS011;69440;52.118;5.408;2023-05-23T10:21:58;6.85;;;2.25;;
80127;SDS011;69440;52.118;5.408;2023-05-23T10:24:28;10.02;;;1.92;;
80127;SDS011;69440;52.118;5.408;2023-05-23T10:26:55;8.18;;;2.22;;
80127;SDS011;69440;52.118;5.408;2023-05-23T10:29:23;8.77;;;2.20;;
80127;SDS011;69440;52.118;5.408;2023-05-23T10:31:50;7.70;;;2.40;;
80127;SDS011;69440;52.118;5.408;2023-05-23T10:37:06;10.07;;;2.08;;
80127;SDS011;69440;52.118;5.408;2023-05-23T10:39:39;9.20;;;2.20;;
80127;SDS011;69440;52.118;5.408;2023-05-23T10:42:20;9.98;;;2.78;;
80127;SDS011;69440;52.118;5.408;2023-05-23T10:44:53;9.52;;;2.22;;
80127;SDS011;69440;52.118;5.408;2023-05-23T10:47:40;6.03;;;1.80;;
80127;SDS011;69440;52.118;5.408;2023-05-23T10:50:11;8.30;;;1.70;;
80127;SDS011;69440;52.118;5.408;2023-05-23T10:55:13;6.32;;;1.80;;
80127;SDS011;69440;52.118;5.408;2023-05-23T10:57:40;8.15;;;2.15;;
80127;SDS011;69440;52.118;5.408;2023-05-23T11:00:14;10.75;;;2.17;;
80127;SDS011;69440;52.118;5.408;2023-05-23T11:02:55;11.63;;;2.13;;
80127;SDS011;69440;52.118;5.408;2023-05-23T11:05:27;8.95;;;2.38;;
80127;SDS011;69440;52.118;5.408;2023-05-23T11:08:12;11.43;;;2.25;;
80127;SDS011;69440;52.118;5.408;2023-05-23T11:11:01;7.32;;;2.35;;
80127;SDS011;69440;52.118;5.408;2023-05-23T11:16:26;7.35;;;1.92;;
80127;SDS011;69440;52.118;5.408;2023-05-23T11:24:22;7.43;;;1.77;;
80127;SDS011;69440;52.118;5.408;2023-05-23T11:26:58;9.05;;;1.73;;
80127;SDS011;69440;52.118;5.408;2023-05-23T11:29:26;7.43;;;1.88;;
80127;SDS011;69440;52.118;5.408;2023-05-23T11:31:56;6.85;;;1.70;;
80127;SDS011;69440;52.118;5.408;2023-05-23T11:34:26;9.30;;;1.70;;
80127;SDS011;69440;52.118;5.408;2023-05-23T11:36:53;5.20;;;1.70;;
80127;SDS011;69440;52.118;5.408;2023-05-23T11:39:21;7.68;;;1.70;;
80127;SDS011;69440;52.118;5.408;2023-05-23T11:41:58;8.40;;;1.70;;
80127;SDS011;69440;52.118;5.408;2023-05-23T11:44:28;7.75;;;2.17;;
80127;SDS011;69440;52.118;5.408;2023-05-23T11:47:02;5.75;;;1.77;;
80127;SDS011;69440;52.118;5.408;2023-05-23T11:49:30;7.13;;;1.90;;
80127;SDS011;69440;52.118;5.408;2023-05-23T11:51:57;5.72;;;1.73;;
80127;SDS011;69440;52.118;5.408;2023-05-23T11:54:25;5.55;;;1.90;;
80127;SDS011;69440;52.118;5.408;2023-05-23T11:56:52;8.82;;;1.70;;
80127;SDS011;69440;52.118;5.408;2023-05-23T11:59:23;11.68;;;2.30;;
80127;SDS011;69440;52.118;5.408;2023-05-23T12:01:51;9.82;;;1.88;;
80127;SDS011;69440;52.118;5.408;2023-05-23T12:04:18;8.00;;;3.50;;
80127;SDS011;69440;52.118;5.408;2023-05-23T12:06:45;5.63;;;1.50;;
80127;SDS011;69440;52.118;5.408;2023-05-23T12:09:16;7.13;;;1.85;;
80127;SDS011;69440;52.118;5.408;2023-05-23T12:11:43;4.70;;;1.75;;
80127;SDS011;69440;52.118;5.408;2023-05-23T12:14:13;6.50;;;1.50;;
80127;SDS011;69440;52.118;5.408;2023-05-23T12:16:43;9.57;;;1.67;;
80127;SDS011;69440;52.118;5.408;2023-05-23T12:19:13;5.20;;;1.70;;
80127;SDS011;69440;52.118;5.408;2023-05-23T12:21:43;5.72;;;1.65;;
80127;SDS011;69440;52.118;5.408;2023-05-23T12:24:11;6.90;;;1.65;;
80127;SDS011;69440;52.118;5.408;2023-05-23T12:26:54;7.50;;;2.80;;
80127;SDS011;69440;52.118;5.408;2023-05-23T12:29:27;11.40;;;2.13;;
80127;SDS011;69440;52.118;5.408;2023-05-23T12:31:58;7.45;;;2.10;;
80127;SDS011;69440;52.118;5.408;2023-05-23T12:34:26;7.80;;;2.20;;
80127;SDS011;69440;52.118;5.408;2023-05-23T12:36:56;9.23;;;2.35;;
80127;SDS011;69440;52.118;5.408;2023-05-23T12:39:44;6.22;;;1.70;;
80127;SDS011;69440;52.118;5.408;2023-05-23T12:42:11;6.50;;;2.08;;
80127;SDS011;69440;52.118;5.408;2023-05-23T12:44:39;9.07;;;2.00;;
80127;SDS011;69440;52.118;5.408;2023-05-23T12:47:06;6.65;;;2.10;;
80127;SDS011;69440;52.118;5.408;2023-05-23T12:49:33;8.75;;;1.70;;
80127;SDS011;69440;52.118;5.408;2023-05-23T12:51:59;8.63;;;1.85;;
80127;SDS011;69440;52.118;5.408;2023-05-23T12:54:26;6.97;;;1.80;;
80127;SDS011;69440;52.118;5.408;2023-05-23T12:56:52;6.10;;;1.70;;
80127;SDS011;69440;52.118;5.408;2023-05-23T12:59:19;9.77;;;2.10;;
80127;SDS011;69440;52.118;5.408;2023-05-23T13:01:45;7.35;;;1.90;;
80127;SDS011;69440;52.118;5.408;2023-05-23T13:04:12;6.35;;;2.00;;
80127;SDS011;69440;52.118;5.408;2023-05-23T13:06:38;6.53;;;2.03;;
80127;SDS011;69440;52.118;5.408;2023-05-23T13:09:05;7.47;;;2.30;;
80127;SDS011;69440;52.118;5.408;2023-05-23T13:11:31;8.20;;;2.17;;
80127;SDS011;69440;52.118;5.408;2023-05-23T13:13:58;9.63;;;2.13;;
80127;SDS011;69440;52.118;5.408;2023-05-23T13:16:24;5.43;;;1.70;;
80127;SDS011;69440;52.118;5.408;2023-05-23T13:18:51;9.10;;;1.75;;
80127;SDS011;69440;52.118;5.408;2023-05-23T13:21:18;8.13;;;2.05;;
80127;SDS011;69440;52.118;5.408;2023-05-23T13:23:44;7.05;;;1.95;;
80127;SDS011;69440;52.118;5.408;2023-05-23T13:26:11;8.52;;;2.20;;
80127;SDS011;69440;52.118;5.408;2023-05-23T13:28:39;9.95;;;2.13;;
80127;SDS011;69440;52.118;5.408;2023-05-23T13:31:06;8.20;;;2.00;;
80127;SDS011;69440;52.118;5.408;2023-05-23T13:33:32;9.00;;;2.22;;
80127;SDS011;69440;52.118;5.408;2023-05-23T13:35:59;7.18;;;1.90;;
80127;SDS011;69440;52.118;5.408;2023-05-23T13:38:25;8.82;;;1.85;;
80127;SDS011;69440;52.118;5.408;2023-05-23T13:40:52;8.35;;;2.30;;
80127;SDS011;69440;52.118;5.408;2023-05-23T13:43:19;8.00;;;2.17;;
80127;SDS011;69440;52.118;5.408;2023-05-23T13:45:46;9.60;;;2.22;;
80127;SDS011;69440;52.118;5.408;2023-05-23T13:48:12;5.95;;;1.92;;
80127;SDS011;69440;52.118;5.408;2023-05-23T13:50:39;5.00;;;2.05;;
80127;SDS011;69440;52.118;5.408;2023-05-23T13:53:05;5.47;;;1.73;;
80127;SDS011;69440;52.118;5.408;2023-05-23T13:55:39;6.57;;;1.75;;
80127;SDS011;69440;52.118;5.408;2023-05-23T13:58:06;8.07;;;2.17;;
80127;SDS011;69440;52.118;5.408;2023-05-23T14:00:32;4.65;;;1.58;;
80127;SDS011;69440;52.118;5.408;2023-05-23T14:02:59;5.30;;;1.60;;
80127;SDS011;69440;52.118;5.408;2023-05-23T14:05:25;6.88;;;1.70;;
80127;SDS011;69440;52.118;5.408;2023-05-23T14:07:52;6.20;;;1.40;;
80127;SDS011;69440;52.118;5.408;2023-05-23T14:10:18;7.15;;;1.80;;
80127;SDS011;69440;52.118;5.408;2023-05-23T14:12:47;6.93;;;1.60;;
80127;SDS011;69440;52.118;5.408;2023-05-23T14:15:14;6.25;;;1.60;;
80127;SDS011;69440;52.118;5.408;2023-05-23T14:17:41;6.68;;;1.55;;
80127;SDS011;69440;52.118;5.408;2023-05-23T14:20:08;6.75;;;2.00;;
80127;SDS011;69440;52.118;5.408;2023-05-23T14:22:35;8.65;;;1.70;;
80127;SDS011;69440;52.118;5.408;2023-05-23T14:25:01;5.28;;;2.03;;
80127;SDS011;69440;52.118;5.408;2023-05-23T14:27:28;6.60;;;1.40;;
80127;SDS011;69440;52.118;5.408;2023-05-23T14:29:55;5.53;;;1.92;;
80127;SDS011;69440;52.118;5.408;2023-05-23T14:32:21;7.82;;;1.92;;
80127;SDS011;69440;52.118;5.408;2023-05-23T14:34:48;6.55;;;1.80;;
80127;SDS011;69440;52.118;5.408;2023-05-23T14:37:14;6.70;;;1.70;;
80127;SDS011;69440;52.118;5.408;2023-05-23T14:39:40;10.13;;;2.25;;
80127;SDS011;69440;52.118;5.408;2023-05-23T14:42:07;9.02;;;1.75;;
80127;SDS011;69440;52.118;5.408;2023-05-23T14:44:33;6.10;;;2.08;;
80127;SDS011;69440;52.118;5.408;2023-05-23T14:47:00;6.60;;;1.55;;
80127;SDS011;69440;52.118;5.408;2023-05-23T14:49:27;8.73;;;2.08;;
80127;SDS011;69440;52.118;5.408;2023-05-23T14:51:53;7.40;;;1.90;;
80127;SDS011;69440;52.118;5.408;2023-05-23T14:54:20;7.15;;;2.03;;
80127;SDS011;69440;52.118;5.408;2023-05-23T14:56:46;7.88;;;1.83;;
80127;SDS011;69440;52.118;5.408;2023-05-23T14:59:16;7.38;;;1.80;;
80127;SDS011;69440;52.118;5.408;2023-05-23T15:01:42;5.40;;;1.90;;
80127;SDS011;69440;52.118;5.408;2023-05-23T15:04:09;8.73;;;2.00;;
80127;SDS011;69440;52.118;5.408;2023-05-23T15:09:04;6.78;;;1.80;;